sensor_id;sensor_type;location;lat;lon;timestamp;P1;durP1;ratioP1;P2;durP2;ratioP2
17818;SDS011;9034;50.284;19.310;2024-02-26T00:00:21;53.15;;;26.05;;
17818;SDS011;9034;50.284;19.310;2024-02-26T00:01:24;54.05;;;24.80;;
17818;SDS011;9034;50.284;19.310;2024-02-26T00:02:26;53.50;;;25.13;;
17818;SDS011;9034;50.284;19.310;2024-02-26T00:03:30;60.70;;;28.08;;
17818;SDS011;9034;50.284;19.310;2024-02-26T00:04:34;56.53;;;24.30;;
17818;SDS011;9034;50.284;19.310;2024-02-26T00:05:38;55.03;;;24.30;;
17818;SDS011;9034;50.284;19.310;2024-02-26T00:06:41;59.15;;;25.25;;
17818;SDS011;9034;50.284;19.310;2024-02-26T00:07:44;56.53;;;24.65;;
17818;SDS011;9034;50.284;19.310;2024-02-26T00:08:46;56.83;;;25.45;;
17818;SDS011;9034;50.284;19.310;2024-02-26T00:09:49;58.47;;;24.35;;
17818;SDS011;9034;50.284;19.310;2024-02-26T00:10:51;56.55;;;24.27;;
17818;SDS011;9034;50.284;19.310;2024-02-26T00:11:54;64.97;;;26.10;;
17818;SDS011;9034;50.284;19.310;2024-02-26T00:12:57;52.53;;;24.00;;
17818;SDS011;9034;50.284;19.310;2024-02-26T00:14:00;59.13;;;26.42;;
17818;SDS011;9034;50.284;19.310;2024-02-26T00:15:02;68.38;;;32.55;;
17818;SDS011;9034;50.284;19.310;2024-02-26T00:16:05;67.65;;;27.35;;
17818;SDS011;9034;50.284;19.310;2024-02-26T00:17:08;60.05;;;25.40;;
17818;SDS011;9034;50.284;19.310;2024-02-26T00:18:11;56.42;;;25.38;;
17818;SDS011;9034;50.284;19.310;2024-02-26T00:19:14;57.03;;;25.83;;
17818;SDS011;9034;50.284;19.310;2024-02-26T00:20:17;58.33;;;24.85;;
17818;SDS011;9034;50.284;19.310;2024-02-26T00:21:21;51.25;;;24.35;;
17818;SDS011;9034;50.284;19.310;2024-02-26T00:22:24;51.33;;;22.85;;
17818;SDS011;9034;50.284;19.310;2024-02-26T00:23:26;48.67;;;22.25;;
17818;SDS011;9034;50.284;19.310;2024-02-26T00:24:29;58.53;;;24.48;;
17818;SDS011;9034;50.284;19.310;2024-02-26T00:25:31;61.72;;;24.65;;
17818;SDS011;9034;50.284;19.310;2024-02-26T00:26:34;63.80;;;26.67;;
17818;SDS011;9034;50.284;19.310;2024-02-26T00:27:36;64.20;;;27.85;;
17818;SDS011;9034;50.284;19.310;2024-02-26T00:28:40;54.75;;;23.52;;
17818;SDS011;9034;50.284;19.310;2024-02-26T00:29:42;50.78;;;22.08;;
17818;SDS011;9034;50.284;19.310;2024-02-26T00:30:45;53.03;;;22.20;;
17818;SDS011;9034;50.284;19.310;2024-02-26T00:31:48;60.33;;;23.60;;
17818;SDS011;9034;50.284;19.310;2024-02-26T00:32:49;51.00;;;23.23;;
17818;SDS011;9034;50.284;19.310;2024-02-26T00:33:52;50.95;;;23.75;;
17818;SDS011;9034;50.284;19.310;2024-02-26T00:34:55;55.22;;;24.25;;
17818;SDS011;9034;50.284;19.310;2024-02-26T00:35:58;54.85;;;24.23;;
17818;SDS011;9034;50.284;19.310;2024-02-26T00:37:02;44.95;;;22.05;;
17818;SDS011;9034;50.284;19.310;2024-02-26T00:38:05;52.15;;;25.13;;
17818;SDS011;9034;50.284;19.310;2024-02-26T00:39:07;50.65;;;23.02;;
17818;SDS011;9034;50.284;19.310;2024-02-26T00:40:10;39.00;;;21.52;;
17818;SDS011;9034;50.284;19.310;2024-02-26T00:41:13;45.40;;;22.67;;
17818;SDS011;9034;50.284;19.310;2024-02-26T00:42:15;42.80;;;21.08;;
17818;SDS011;9034;50.284;19.310;2024-02-26T00:43:18;44.65;;;22.77;;
17818;SDS011;9034;50.284;19.310;2024-02-26T00:44:20;51.33;;;23.33;;
17818;SDS011;9034;50.284;19.310;2024-02-26T00:45:23;50.28;;;23.23;;
17818;SDS011;9034;50.284;19.310;2024-02-26T00:46:25;50.50;;;22.45;;
17818;SDS011;9034;50.284;19.310;2024-02-26T00:47:28;52.63;;;23.92;;
17818;SDS011;9034;50.284;19.310;2024-02-26T00:48:30;56.60;;;25.42;;
17818;SDS011;9034;50.284;19.310;2024-02-26T00:49:33;53.10;;;23.67;;
17818;SDS011;9034;50.284;19.310;2024-02-26T00:50:35;59.42;;;25.45;;
17818;SDS011;9034;50.284;19.310;2024-02-26T00:51:37;44.95;;;22.52;;
17818;SDS011;9034;50.284;19.310;2024-02-26T00:52:42;43.95;;;19.35;;
17818;SDS011;9034;50.284;19.310;2024-02-26T00:53:44;44.28;;;21.13;;
17818;SDS011;9034;50.284;19.310;2024-02-26T00:54:47;41.42;;;18.27;;
17818;SDS011;9034;50.284;19.310;2024-02-26T00:55:49;40.42;;;18.90;;
17818;SDS011;9034;50.284;19.310;2024-02-26T00:56:52;46.25;;;20.58;;
17818;SDS011;9034;50.284;19.310;2024-02-26T00:57:54;50.17;;;20.63;;
17818;SDS011;9034;50.284;19.310;2024-02-26T00:58:57;43.78;;;20.52;;
17818;SDS011;9034;50.284;19.310;2024-02-26T00:59:59;36.13;;;19.35;;
17818;SDS011;9034;50.284;19.310;2024-02-26T01:01:02;39.47;;;18.05;;
17818;SDS011;9034;50.284;19.310;2024-02-26T01:02:04;36.97;;;18.08;;
17818;SDS011;9034;50.284;19.310;2024-02-26T01:03:08;44.70;;;19.52;;
17818;SDS011;9034;50.284;19.310;2024-02-26T01:04:12;34.72;;;17.35;;
17818;SDS011;9034;50.284;19.310;2024-02-26T01:05:15;41.65;;;18.88;;
17818;SDS011;9034;50.284;19.310;2024-02-26T01:06:18;47.47;;;19.73;;
17818;SDS011;9034;50.284;19.310;2024-02-26T01:07:21;40.75;;;18.90;;
17818;SDS011;9034;50.284;19.310;2024-02-26T01:08:24;36.38;;;17.08;;
17818;SDS011;9034;50.284;19.310;2024-02-26T01:09:27;42.15;;;18.80;;
17818;SDS011;9034;50.284;19.310;2024-02-26T01:10:29;38.55;;;18.27;;
17818;SDS011;9034;50.284;19.310;2024-02-26T01:11:33;37.65;;;18.27;;
17818;SDS011;9034;50.284;19.310;2024-02-26T01:12:35;42.40;;;19.42;;
17818;SDS011;9034;50.284;19.310;2024-02-26T01:13:38;58.22;;;21.88;;
17818;SDS011;9034;50.284;19.310;2024-02-26T01:14:40;51.97;;;20.85;;
17818;SDS011;9034;50.284;19.310;2024-02-26T01:15:43;50.65;;;20.15;;
17818;SDS011;9034;50.284;19.310;2024-02-26T01:16:45;46.20;;;19.35;;
17818;SDS011;9034;50.284;19.310;2024-02-26T01:17:48;43.38;;;19.30;;
17818;SDS011;9034;50.284;19.310;2024-02-26T01:18:51;35.90;;;17.60;;
17818;SDS011;9034;50.284;19.310;2024-02-26T01:19:54;35.75;;;17.50;;
17818;SDS011;9034;50.284;19.310;2024-02-26T01:20:56;40.92;;;18.08;;
17818;SDS011;9034;50.284;19.310;2024-02-26T01:21:58;36.90;;;17.45;;
17818;SDS011;9034;50.284;19.310;2024-02-26T01:23:01;42.65;;;18.48;;
17818;SDS011;9034;50.284;19.310;2024-02-26T01:24:05;38.85;;;19.23;;
17818;SDS011;9034;50.284;19.310;2024-02-26T01:25:09;43.47;;;18.15;;
17818;SDS011;9034;50.284;19.310;2024-02-26T01:26:11;39.80;;;18.58;;
17818;SDS011;9034;50.284;19.310;2024-02-26T01:27:14;44.80;;;20.02;;
17818;SDS011;9034;50.284;19.310;2024-02-26T01:28:17;43.88;;;19.83;;
17818;SDS011;9034;50.284;19.310;2024-02-26T01:29:20;45.20;;;19.05;;
17818;SDS011;9034;50.284;19.310;2024-02-26T01:30:22;41.47;;;20.33;;
17818;SDS011;9034;50.284;19.310;2024-02-26T01:31:25;48.80;;;19.55;;
17818;SDS011;9034;50.284;19.310;2024-02-26T01:32:27;43.53;;;20.77;;
17818;SDS011;9034;50.284;19.310;2024-02-26T01:33:30;41.10;;;18.92;;
17818;SDS011;9034;50.284;19.310;2024-02-26T01:34:32;42.88;;;19.70;;
17818;SDS011;9034;50.284;19.310;2024-02-26T01:35:35;49.40;;;20.58;;
17818;SDS011;9034;50.284;19.310;2024-02-26T01:36:37;42.90;;;19.92;;
17818;SDS011;9034;50.284;19.310;2024-02-26T01:37:40;45.75;;;21.38;;
17818;SDS011;9034;50.284;19.310;2024-02-26T01:38:43;45.53;;;20.75;;
17818;SDS011;9034;50.284;19.310;2024-02-26T01:39:47;47.65;;;21.27;;
17818;SDS011;9034;50.284;19.310;2024-02-26T01:40:49;51.97;;;23.15;;
17818;SDS011;9034;50.284;19.310;2024-02-26T01:41:52;42.10;;;22.58;;
17818;SDS011;9034;50.284;19.310;2024-02-26T01:42:54;53.65;;;23.88;;
17818;SDS011;9034;50.284;19.310;2024-02-26T01:43:57;56.78;;;24.48;;
17818;SDS011;9034;50.284;19.310;2024-02-26T01:44:59;58.10;;;22.85;;
17818;SDS011;9034;50.284;19.310;2024-02-26T01:46:03;50.30;;;22.35;;
17818;SDS011;9034;50.284;19.310;2024-02-26T01:47:05;59.95;;;25.15;;
17818;SDS011;9034;50.284;19.310;2024-02-26T01:48:10;59.50;;;25.45;;
17818;SDS011;9034;50.284;19.310;2024-02-26T01:49:13;57.20;;;24.90;;
17818;SDS011;9034;50.284;19.310;2024-02-26T01:50:15;54.03;;;22.98;;
17818;SDS011;9034;50.284;19.310;2024-02-26T01:51:19;63.30;;;24.33;;
17818;SDS011;9034;50.284;19.310;2024-02-26T01:52:21;54.55;;;24.00;;
17818;SDS011;9034;50.284;19.310;2024-02-26T01:53:24;51.25;;;24.95;;
17818;SDS011;9034;50.284;19.310;2024-02-26T01:54:26;61.00;;;26.02;;
17818;SDS011;9034;50.284;19.310;2024-02-26T01:55:30;57.58;;;23.88;;
17818;SDS011;9034;50.284;19.310;2024-02-26T01:56:34;54.42;;;23.65;;
17818;SDS011;9034;50.284;19.310;2024-02-26T01:57:36;60.10;;;24.75;;
17818;SDS011;9034;50.284;19.310;2024-02-26T01:58:39;54.85;;;24.63;;
17818;SDS011;9034;50.284;19.310;2024-02-26T01:59:41;55.10;;;24.13;;
17818;SDS011;9034;50.284;19.310;2024-02-26T02:00:44;54.90;;;23.55;;
17818;SDS011;9034;50.284;19.310;2024-02-26T02:01:47;56.13;;;24.90;;
17818;SDS011;9034;50.284;19.310;2024-02-26T02:02:51;55.35;;;24.58;;
17818;SDS011;9034;50.284;19.310;2024-02-26T02:03:54;59.10;;;25.10;;
17818;SDS011;9034;50.284;19.310;2024-02-26T02:04:57;53.58;;;24.55;;
17818;SDS011;9034;50.284;19.310;2024-02-26T02:05:59;54.63;;;22.92;;
17818;SDS011;9034;50.284;19.310;2024-02-26T02:07:02;52.38;;;24.52;;
17818;SDS011;9034;50.284;19.310;2024-02-26T02:08:04;52.40;;;23.98;;
17818;SDS011;9034;50.284;19.310;2024-02-26T02:09:08;48.28;;;24.75;;
17818;SDS011;9034;50.284;19.310;2024-02-26T02:10:10;52.45;;;22.58;;
17818;SDS011;9034;50.284;19.310;2024-02-26T02:11:15;47.80;;;22.92;;
17818;SDS011;9034;50.284;19.310;2024-02-26T02:12:17;51.15;;;25.17;;
17818;SDS011;9034;50.284;19.310;2024-02-26T02:13:21;52.65;;;24.10;;
17818;SDS011;9034;50.284;19.310;2024-02-26T02:14:23;51.42;;;22.45;;
17818;SDS011;9034;50.284;19.310;2024-02-26T02:15:27;52.08;;;23.50;;
17818;SDS011;9034;50.284;19.310;2024-02-26T02:16:29;56.15;;;23.27;;
17818;SDS011;9034;50.284;19.310;2024-02-26T02:17:32;54.38;;;24.90;;
17818;SDS011;9034;50.284;19.310;2024-02-26T02:18:34;60.72;;;27.40;;
17818;SDS011;9034;50.284;19.310;2024-02-26T02:19:37;61.10;;;28.58;;
17818;SDS011;9034;50.284;19.310;2024-02-26T02:20:40;63.83;;;31.23;;
17818;SDS011;9034;50.284;19.310;2024-02-26T02:21:43;65.88;;;29.10;;
17818;SDS011;9034;50.284;19.310;2024-02-26T02:22:45;60.88;;;27.65;;
17818;SDS011;9034;50.284;19.310;2024-02-26T02:23:48;64.70;;;27.15;;
17818;SDS011;9034;50.284;19.310;2024-02-26T02:24:52;60.13;;;28.08;;
17818;SDS011;9034;50.284;19.310;2024-02-26T02:25:55;53.55;;;27.88;;
17818;SDS011;9034;50.284;19.310;2024-02-26T02:26:58;59.67;;;26.58;;
17818;SDS011;9034;50.284;19.310;2024-02-26T02:28:01;58.50;;;26.92;;
17818;SDS011;9034;50.284;19.310;2024-02-26T02:29:03;52.15;;;26.27;;
17818;SDS011;9034;50.284;19.310;2024-02-26T02:30:06;56.13;;;24.70;;
17818;SDS011;9034;50.284;19.310;2024-02-26T02:31:10;59.58;;;28.17;;
17818;SDS011;9034;50.284;19.310;2024-02-26T02:32:12;59.47;;;27.55;;
17818;SDS011;9034;50.284;19.310;2024-02-26T02:33:16;58.20;;;24.88;;
17818;SDS011;9034;50.284;19.310;2024-02-26T02:34:18;52.65;;;23.73;;
17818;SDS011;9034;50.284;19.310;2024-02-26T02:35:22;54.72;;;24.55;;
17818;SDS011;9034;50.284;19.310;2024-02-26T02:36:25;84.45;;;32.53;;
17818;SDS011;9034;50.284;19.310;2024-02-26T02:37:28;68.28;;;30.00;;
17818;SDS011;9034;50.284;19.310;2024-02-26T02:38:30;69.13;;;30.08;;
17818;SDS011;9034;50.284;19.310;2024-02-26T02:39:35;68.68;;;31.15;;
17818;SDS011;9034;50.284;19.310;2024-02-26T02:40:37;69.50;;;29.48;;
17818;SDS011;9034;50.284;19.310;2024-02-26T02:41:40;63.50;;;29.67;;
17818;SDS011;9034;50.284;19.310;2024-02-26T02:42:42;62.35;;;29.55;;
17818;SDS011;9034;50.284;19.310;2024-02-26T02:43:45;62.88;;;28.05;;
17818;SDS011;9034;50.284;19.310;2024-02-26T02:44:47;65.45;;;28.50;;
17818;SDS011;9034;50.284;19.310;2024-02-26T02:45:50;68.68;;;29.98;;
17818;SDS011;9034;50.284;19.310;2024-02-26T02:46:53;51.78;;;26.15;;
17818;SDS011;9034;50.284;19.310;2024-02-26T02:47:56;50.83;;;25.30;;
17818;SDS011;9034;50.284;19.310;2024-02-26T02:48:58;54.55;;;26.60;;
17818;SDS011;9034;50.284;19.310;2024-02-26T02:50:01;56.13;;;26.27;;
17818;SDS011;9034;50.284;19.310;2024-02-26T02:51:03;49.38;;;26.25;;
17818;SDS011;9034;50.284;19.310;2024-02-26T02:52:08;49.47;;;24.13;;
17818;SDS011;9034;50.284;19.310;2024-02-26T02:53:10;56.25;;;24.80;;
17818;SDS011;9034;50.284;19.310;2024-02-26T02:54:13;50.78;;;23.58;;
17818;SDS011;9034;50.284;19.310;2024-02-26T02:55:15;41.72;;;19.13;;
17818;SDS011;9034;50.284;19.310;2024-02-26T02:56:18;40.55;;;18.88;;
17818;SDS011;9034;50.284;19.310;2024-02-26T02:57:20;36.58;;;17.95;;
17818;SDS011;9034;50.284;19.310;2024-02-26T02:58:24;43.72;;;19.42;;
17818;SDS011;9034;50.284;19.310;2024-02-26T02:59:26;44.22;;;19.23;;
17818;SDS011;9034;50.284;19.310;2024-02-26T03:00:28;40.35;;;19.02;;
17818;SDS011;9034;50.284;19.310;2024-02-26T03:01:31;44.33;;;19.63;;
17818;SDS011;9034;50.284;19.310;2024-02-26T03:02:34;41.85;;;20.27;;
17818;SDS011;9034;50.284;19.310;2024-02-26T03:03:37;54.90;;;23.08;;
17818;SDS011;9034;50.284;19.310;2024-02-26T03:04:40;48.28;;;20.67;;
17818;SDS011;9034;50.284;19.310;2024-02-26T03:05:42;46.70;;;20.52;;
17818;SDS011;9034;50.284;19.310;2024-02-26T03:06:45;48.85;;;22.02;;
17818;SDS011;9034;50.284;19.310;2024-02-26T03:07:49;44.58;;;22.02;;
17818;SDS011;9034;50.284;19.310;2024-02-26T03:08:52;46.90;;;20.80;;
17818;SDS011;9034;50.284;19.310;2024-02-26T03:09:54;56.65;;;20.80;;
17818;SDS011;9034;50.284;19.310;2024-02-26T03:10:58;62.50;;;22.65;;
17818;SDS011;9034;50.284;19.310;2024-02-26T03:12:00;56.47;;;22.67;;
17818;SDS011;9034;50.284;19.310;2024-02-26T03:13:03;42.97;;;21.63;;
17818;SDS011;9034;50.284;19.310;2024-02-26T03:14:05;52.83;;;22.65;;
17818;SDS011;9034;50.284;19.310;2024-02-26T03:15:08;52.40;;;24.10;;
17818;SDS011;9034;50.284;19.310;2024-02-26T03:16:13;57.45;;;21.95;;
17818;SDS011;9034;50.284;19.310;2024-02-26T03:17:15;45.63;;;22.48;;
17818;SDS011;9034;50.284;19.310;2024-02-26T03:18:18;46.00;;;23.40;;
17818;SDS011;9034;50.284;19.310;2024-02-26T03:19:20;51.70;;;23.98;;
17818;SDS011;9034;50.284;19.310;2024-02-26T03:20:23;52.40;;;24.30;;
17818;SDS011;9034;50.284;19.310;2024-02-26T03:21:26;52.10;;;24.50;;
17818;SDS011;9034;50.284;19.310;2024-02-26T03:22:29;56.28;;;23.38;;
17818;SDS011;9034;50.284;19.310;2024-02-26T03:23:33;57.72;;;25.13;;
17818;SDS011;9034;50.284;19.310;2024-02-26T03:24:38;56.53;;;24.23;;
17818;SDS011;9034;50.284;19.310;2024-02-26T03:25:40;58.30;;;25.58;;
17818;SDS011;9034;50.284;19.310;2024-02-26T03:26:43;60.35;;;25.88;;
17818;SDS011;9034;50.284;19.310;2024-02-26T03:27:45;56.22;;;24.45;;
17818;SDS011;9034;50.284;19.310;2024-02-26T03:28:48;61.45;;;26.05;;
17818;SDS011;9034;50.284;19.310;2024-02-26T03:29:50;50.35;;;24.38;;
17818;SDS011;9034;50.284;19.310;2024-02-26T03:30:54;62.47;;;26.08;;
17818;SDS011;9034;50.284;19.310;2024-02-26T03:31:57;56.65;;;25.63;;
17818;SDS011;9034;50.284;19.310;2024-02-26T03:32:59;63.72;;;28.35;;
17818;SDS011;9034;50.284;19.310;2024-02-26T03:34:02;64.35;;;26.98;;
17818;SDS011;9034;50.284;19.310;2024-02-26T03:35:04;65.80;;;27.27;;
17818;SDS011;9034;50.284;19.310;2024-02-26T03:36:09;59.17;;;26.67;;
17818;SDS011;9034;50.284;19.310;2024-02-26T03:37:11;54.50;;;26.52;;
17818;SDS011;9034;50.284;19.310;2024-02-26T03:38:14;70.90;;;27.50;;
17818;SDS011;9034;50.284;19.310;2024-02-26T03:39:17;70.60;;;26.80;;
17818;SDS011;9034;50.284;19.310;2024-02-26T03:40:19;60.85;;;24.92;;
17818;SDS011;9034;50.284;19.310;2024-02-26T03:41:22;66.00;;;26.20;;
17818;SDS011;9034;50.284;19.310;2024-02-26T03:42:24;66.05;;;27.02;;
17818;SDS011;9034;50.284;19.310;2024-02-26T03:43:26;51.63;;;23.95;;
17818;SDS011;9034;50.284;19.310;2024-02-26T03:44:29;52.92;;;23.45;;
17818;SDS011;9034;50.284;19.310;2024-02-26T03:45:31;48.85;;;21.77;;
17818;SDS011;9034;50.284;19.310;2024-02-26T03:46:34;49.00;;;24.92;;
17818;SDS011;9034;50.284;19.310;2024-02-26T03:47:37;59.50;;;25.35;;
17818;SDS011;9034;50.284;19.310;2024-02-26T03:48:40;63.33;;;27.30;;
17818;SDS011;9034;50.284;19.310;2024-02-26T03:49:43;71.25;;;30.00;;
17818;SDS011;9034;50.284;19.310;2024-02-26T03:50:45;79.50;;;35.90;;
17818;SDS011;9034;50.284;19.310;2024-02-26T03:51:48;78.50;;;34.25;;
17818;SDS011;9034;50.284;19.310;2024-02-26T03:52:50;68.38;;;30.20;;
17818;SDS011;9034;50.284;19.310;2024-02-26T03:53:53;69.55;;;29.25;;
17818;SDS011;9034;50.284;19.310;2024-02-26T03:54:56;63.65;;;31.00;;
17818;SDS011;9034;50.284;19.310;2024-02-26T03:56:02;59.45;;;27.42;;
17818;SDS011;9034;50.284;19.310;2024-02-26T03:57:05;64.78;;;28.55;;
17818;SDS011;9034;50.284;19.310;2024-02-26T03:58:08;50.20;;;25.42;;
17818;SDS011;9034;50.284;19.310;2024-02-26T03:59:10;47.25;;;22.38;;
17818;SDS011;9034;50.284;19.310;2024-02-26T04:00:12;45.17;;;21.02;;
17818;SDS011;9034;50.284;19.310;2024-02-26T04:01:16;53.85;;;24.38;;
17818;SDS011;9034;50.284;19.310;2024-02-26T04:02:18;56.72;;;24.23;;
17818;SDS011;9034;50.284;19.310;2024-02-26T04:03:21;57.90;;;24.20;;
17818;SDS011;9034;50.284;19.310;2024-02-26T04:04:23;60.33;;;25.85;;
17818;SDS011;9034;50.284;19.310;2024-02-26T04:05:27;62.58;;;25.38;;
17818;SDS011;9034;50.284;19.310;2024-02-26T04:06:29;54.53;;;24.50;;
17818;SDS011;9034;50.284;19.310;2024-02-26T04:07:32;54.95;;;23.55;;
17818;SDS011;9034;50.284;19.310;2024-02-26T04:08:34;63.65;;;25.98;;
17818;SDS011;9034;50.284;19.310;2024-02-26T04:09:36;59.70;;;26.45;;
17818;SDS011;9034;50.284;19.310;2024-02-26T04:10:40;63.20;;;26.75;;
17818;SDS011;9034;50.284;19.310;2024-02-26T04:11:42;69.88;;;27.40;;
17818;SDS011;9034;50.284;19.310;2024-02-26T04:12:45;56.17;;;26.98;;
17818;SDS011;9034;50.284;19.310;2024-02-26T04:13:48;80.93;;;37.83;;
17818;SDS011;9034;50.284;19.310;2024-02-26T04:14:53;62.35;;;26.38;;
17818;SDS011;9034;50.284;19.310;2024-02-26T04:15:55;56.17;;;25.88;;
17818;SDS011;9034;50.284;19.310;2024-02-26T04:16:59;65.20;;;30.00;;
17818;SDS011;9034;50.284;19.310;2024-02-26T04:18:01;61.30;;;29.67;;
17818;SDS011;9034;50.284;19.310;2024-02-26T04:19:05;63.28;;;29.55;;
17818;SDS011;9034;50.284;19.310;2024-02-26T04:20:12;65.30;;;29.60;;
17818;SDS011;9034;50.284;19.310;2024-02-26T04:21:16;95.30;;;37.22;;
17818;SDS011;9034;50.284;19.310;2024-02-26T04:22:19;62.80;;;28.48;;
17818;SDS011;9034;50.284;19.310;2024-02-26T04:23:22;61.72;;;27.60;;
17818;SDS011;9034;50.284;19.310;2024-02-26T04:24:24;76.88;;;30.33;;
17818;SDS011;9034;50.284;19.310;2024-02-26T04:25:27;67.93;;;28.02;;
17818;SDS011;9034;50.284;19.310;2024-02-26T04:26:31;54.85;;;25.33;;
17818;SDS011;9034;50.284;19.310;2024-02-26T04:27:34;56.60;;;26.17;;
17818;SDS011;9034;50.284;19.310;2024-02-26T04:28:36;59.72;;;26.00;;
17818;SDS011;9034;50.284;19.310;2024-02-26T04:29:39;53.03;;;25.42;;
17818;SDS011;9034;50.284;19.310;2024-02-26T04:30:42;61.45;;;25.98;;
17818;SDS011;9034;50.284;19.310;2024-02-26T04:31:44;56.25;;;24.58;;
17818;SDS011;9034;50.284;19.310;2024-02-26T04:32:47;62.72;;;25.42;;
17818;SDS011;9034;50.284;19.310;2024-02-26T04:33:49;51.67;;;25.60;;
17818;SDS011;9034;50.284;19.310;2024-02-26T04:34:52;60.08;;;27.38;;
17818;SDS011;9034;50.284;19.310;2024-02-26T04:35:55;55.38;;;23.92;;
17818;SDS011;9034;50.284;19.310;2024-02-26T04:36:58;54.17;;;24.70;;
17818;SDS011;9034;50.284;19.310;2024-02-26T04:38:01;53.35;;;22.67;;
17818;SDS011;9034;50.284;19.310;2024-02-26T04:39:03;47.45;;;22.27;;
17818;SDS011;9034;50.284;19.310;2024-02-26T04:40:08;55.25;;;23.08;;
17818;SDS011;9034;50.284;19.310;2024-02-26T04:41:10;43.80;;;20.70;;
17818;SDS011;9034;50.284;19.310;2024-02-26T04:42:14;44.22;;;20.02;;
17818;SDS011;9034;50.284;19.310;2024-02-26T04:43:17;41.80;;;19.55;;
17818;SDS011;9034;50.284;19.310;2024-02-26T04:44:20;55.75;;;21.48;;
17818;SDS011;9034;50.284;19.310;2024-02-26T04:45:23;43.85;;;18.77;;
17818;SDS011;9034;50.284;19.310;2024-02-26T04:46:26;55.70;;;21.58;;
17818;SDS011;9034;50.284;19.310;2024-02-26T04:47:29;53.28;;;20.98;;
17818;SDS011;9034;50.284;19.310;2024-02-26T04:48:32;45.00;;;18.63;;
17818;SDS011;9034;50.284;19.310;2024-02-26T04:49:35;36.28;;;18.08;;
17818;SDS011;9034;50.284;19.310;2024-02-26T04:50:38;41.17;;;17.73;;
17818;SDS011;9034;50.284;19.310;2024-02-26T04:51:40;48.42;;;19.67;;
17818;SDS011;9034;50.284;19.310;2024-02-26T04:52:43;41.67;;;18.80;;
17818;SDS011;9034;50.284;19.310;2024-02-26T04:53:45;42.92;;;18.38;;
17818;SDS011;9034;50.284;19.310;2024-02-26T04:54:47;47.25;;;20.42;;
17818;SDS011;9034;50.284;19.310;2024-02-26T04:55:49;50.38;;;20.52;;
17818;SDS011;9034;50.284;19.310;2024-02-26T04:56:53;40.80;;;18.65;;
17818;SDS011;9034;50.284;19.310;2024-02-26T04:57:56;68.53;;;23.90;;
17818;SDS011;9034;50.284;19.310;2024-02-26T04:58:59;47.45;;;18.75;;
17818;SDS011;9034;50.284;19.310;2024-02-26T05:00:02;50.25;;;20.15;;
17818;SDS011;9034;50.284;19.310;2024-02-26T05:01:06;43.20;;;19.00;;
17818;SDS011;9034;50.284;19.310;2024-02-26T05:02:08;52.33;;;20.30;;
17818;SDS011;9034;50.284;19.310;2024-02-26T05:03:11;46.10;;;20.08;;
17818;SDS011;9034;50.284;19.310;2024-02-26T05:04:15;40.40;;;17.70;;
17818;SDS011;9034;50.284;19.310;2024-02-26T05:05:17;48.40;;;18.58;;
17818;SDS011;9034;50.284;19.310;2024-02-26T05:06:20;39.67;;;17.88;;
17818;SDS011;9034;50.284;19.310;2024-02-26T05:07:22;42.95;;;17.95;;
17818;SDS011;9034;50.284;19.310;2024-02-26T05:08:26;39.25;;;17.67;;
17818;SDS011;9034;50.284;19.310;2024-02-26T05:09:28;43.20;;;18.90;;
17818;SDS011;9034;50.284;19.310;2024-02-26T05:10:31;39.92;;;17.25;;
17818;SDS011;9034;50.284;19.310;2024-02-26T05:11:33;39.40;;;17.25;;
17818;SDS011;9034;50.284;19.310;2024-02-26T05:12:36;46.22;;;17.98;;
17818;SDS011;9034;50.284;19.310;2024-02-26T05:13:40;54.22;;;18.38;;
17818;SDS011;9034;50.284;19.310;2024-02-26T05:14:44;48.17;;;18.42;;
17818;SDS011;9034;50.284;19.310;2024-02-26T05:15:46;38.65;;;16.40;;
17818;SDS011;9034;50.284;19.310;2024-02-26T05:16:50;43.83;;;15.32;;
17818;SDS011;9034;50.284;19.310;2024-02-26T05:17:52;32.40;;;15.90;;
17818;SDS011;9034;50.284;19.310;2024-02-26T05:18:55;35.60;;;16.15;;
17818;SDS011;9034;50.284;19.310;2024-02-26T05:19:57;42.38;;;16.98;;
17818;SDS011;9034;50.284;19.310;2024-02-26T05:21:00;44.80;;;16.08;;
17818;SDS011;9034;50.284;19.310;2024-02-26T05:22:04;38.38;;;15.52;;
17818;SDS011;9034;50.284;19.310;2024-02-26T05:23:08;46.13;;;16.25;;
17818;SDS011;9034;50.284;19.310;2024-02-26T05:24:10;41.70;;;16.67;;
17818;SDS011;9034;50.284;19.310;2024-02-26T05:25:14;54.03;;;17.13;;
17818;SDS011;9034;50.284;19.310;2024-02-26T05:26:19;46.20;;;17.00;;
17818;SDS011;9034;50.284;19.310;2024-02-26T05:27:23;39.85;;;17.23;;
17818;SDS011;9034;50.284;19.310;2024-02-26T05:28:25;43.67;;;17.80;;
17818;SDS011;9034;50.284;19.310;2024-02-26T05:29:30;47.47;;;17.50;;
17818;SDS011;9034;50.284;19.310;2024-02-26T05:30:32;45.35;;;16.33;;
17818;SDS011;9034;50.284;19.310;2024-02-26T05:31:35;44.50;;;17.13;;
17818;SDS011;9034;50.284;19.310;2024-02-26T05:32:37;48.20;;;17.08;;
17818;SDS011;9034;50.284;19.310;2024-02-26T05:33:40;53.17;;;18.50;;
17818;SDS011;9034;50.284;19.310;2024-02-26T05:34:42;47.13;;;19.02;;
17818;SDS011;9034;50.284;19.310;2024-02-26T05:35:46;52.03;;;18.00;;
17818;SDS011;9034;50.284;19.310;2024-02-26T05:36:48;43.20;;;16.90;;
17818;SDS011;9034;50.284;19.310;2024-02-26T05:37:51;44.90;;;17.75;;
17818;SDS011;9034;50.284;19.310;2024-02-26T05:38:53;44.35;;;17.27;;
17818;SDS011;9034;50.284;19.310;2024-02-26T05:39:55;38.88;;;15.13;;
17818;SDS011;9034;50.284;19.310;2024-02-26T05:40:59;48.78;;;17.33;;
17818;SDS011;9034;50.284;19.310;2024-02-26T05:42:01;50.38;;;18.25;;
17818;SDS011;9034;50.284;19.310;2024-02-26T05:43:05;46.45;;;18.50;;
17818;SDS011;9034;50.284;19.310;2024-02-26T05:44:07;46.00;;;17.42;;
17818;SDS011;9034;50.284;19.310;2024-02-26T05:45:13;41.30;;;16.05;;
17818;SDS011;9034;50.284;19.310;2024-02-26T05:46:16;37.28;;;15.70;;
17818;SDS011;9034;50.284;19.310;2024-02-26T05:47:19;35.78;;;15.60;;
17818;SDS011;9034;50.284;19.310;2024-02-26T05:48:21;45.47;;;16.65;;
17818;SDS011;9034;50.284;19.310;2024-02-26T05:49:24;48.47;;;17.25;;
17818;SDS011;9034;50.284;19.310;2024-02-26T05:50:27;43.85;;;16.67;;
17818;SDS011;9034;50.284;19.310;2024-02-26T05:51:30;40.38;;;15.40;;
17818;SDS011;9034;50.284;19.310;2024-02-26T05:52:32;36.35;;;15.25;;
17818;SDS011;9034;50.284;19.310;2024-02-26T05:53:34;33.58;;;15.70;;
17818;SDS011;9034;50.284;19.310;2024-02-26T05:54:37;32.65;;;15.25;;
17818;SDS011;9034;50.284;19.310;2024-02-26T05:55:39;44.70;;;18.00;;
17818;SDS011;9034;50.284;19.310;2024-02-26T05:56:42;39.35;;;16.98;;
17818;SDS011;9034;50.284;19.310;2024-02-26T05:57:44;50.90;;;18.70;;
17818;SDS011;9034;50.284;19.310;2024-02-26T05:58:47;47.17;;;18.63;;
17818;SDS011;9034;50.284;19.310;2024-02-26T05:59:49;49.97;;;18.45;;
17818;SDS011;9034;50.284;19.310;2024-02-26T06:00:53;63.78;;;22.10;;
17818;SDS011;9034;50.284;19.310;2024-02-26T06:01:56;52.28;;;20.40;;
17818;SDS011;9034;50.284;19.310;2024-02-26T06:02:59;69.85;;;23.35;;
17818;SDS011;9034;50.284;19.310;2024-02-26T06:04:01;59.40;;;22.55;;
17818;SDS011;9034;50.284;19.310;2024-02-26T06:05:04;62.38;;;25.05;;
17818;SDS011;9034;50.284;19.310;2024-02-26T06:06:09;67.90;;;26.05;;
17818;SDS011;9034;50.284;19.310;2024-02-26T06:07:12;71.25;;;25.33;;